sensor_id;sensor_type;location;lat;lon;timestamp;P1;durP1;ratioP1;P2;durP2;ratioP2
13475;SDS011;6810;63.824;20.288;2023-03-05T17:00:07;0.40;;;0.40;;
13475;SDS011;6810;63.824;20.288;2023-03-05T17:02:37;0.53;;;0.50;;
13475;SDS011;6810;63.824;20.288;2023-03-05T17:05:04;1.10;;;0.33;;
13475;SDS011;6810;63.824;20.288;2023-03-05T17:07:31;1.47;;;0.40;;
13475;SDS011;6810;63.824;20.288;2023-03-05T17:09:58;0.40;;;0.33;;
13475;SDS011;6810;63.824;20.288;2023-03-05T17:12:25;0.80;;;0.30;;
13475;SDS011;6810;63.824;20.288;2023-03-05T17:14:52;0.77;;;0.40;;
13475;SDS011;6810;63.824;20.288;2023-03-05T17:17:19;0.73;;;0.40;;
13475;SDS011;6810;63.824;20.288;2023-03-05T17:19:47;0.73;;;0.50;;
13475;SDS011;6810;63.824;20.288;2023-03-05T17:22:14;0.40;;;0.30;;
13475;SDS011;6810;63.824;20.288;2023-03-05T17:24:42;0.30;;;0.30;;
13475;SDS011;6810;63.824;20.288;2023-03-05T17:27:09;1.07;;;0.37;;
13475;SDS011;6810;63.824;20.288;2023-03-05T17:29:36;0.20;;;0.20;;
13475;SDS011;6810;63.824;20.288;2023-03-05T17:32:03;0.93;;;0.40;;
13475;SDS011;6810;63.824;20.288;2023-03-05T17:34:30;0.60;;;0.30;;
13475;SDS011;6810;63.824;20.288;2023-03-05T17:37:03;0.40;;;0.30;;
13475;SDS011;6810;63.824;20.288;2023-03-05T17:39:30;0.40;;;0.30;;
13475;SDS011;6810;63.824;20.288;2023-03-05T17:41:58;0.50;;;0.20;;
13475;SDS011;6810;63.824;20.288;2023-03-05T17:44:25;0.60;;;0.30;;
13475;SDS011;6810;63.824;20.288;2023-03-05T17:46:51;0.93;;;0.20;;
13475;SDS011;6810;63.824;20.288;2023-03-05T17:49:18;0.20;;;0.20;;
13475;SDS011;6810;63.824;20.288;2023-03-05T17:51:45;0.67;;;0.30;;
13475;SDS011;6810;63.824;20.288;2023-03-05T17:54:12;0.30;;;0.20;;
13475;SDS011;6810;63.824;20.288;2023-03-05T17:56:39;0.22;;;0.20;;
13475;SDS011;6810;63.824;20.288;2023-03-05T17:59:06;0.67;;;0.47;;
13475;SDS011;6810;63.824;20.288;2023-03-05T18:01:33;0.37;;;0.20;;
13475;SDS011;6810;63.824;20.288;2023-03-05T18:04:01;0.10;;;0.10;;
13475;SDS011;6810;63.824;20.288;2023-03-05T18:06:28;0.10;;;0.10;;
13475;SDS011;6810;63.824;20.288;2023-03-05T18:08:55;0.23;;;0.10;;
13475;SDS011;6810;63.824;20.288;2023-03-05T18:11:22;2.47;;;0.17;;
13475;SDS011;6810;63.824;20.288;2023-03-05T18:13:49;0.63;;;0.20;;
13475;SDS011;6810;63.824;20.288;2023-03-05T18:16:16;0.10;;;0.10;;
13475;SDS011;6810;63.824;20.288;2023-03-05T18:18:43;0.10;;;0.10;;
13475;SDS011;6810;63.824;20.288;2023-03-05T18:21:10;0.27;;;0.20;;
13475;SDS011;6810;63.824;20.288;2023-03-05T18:23:37;0.30;;;0.20;;
13475;SDS011;6810;63.824;20.288;2023-03-05T18:26:04;0.57;;;0.10;;
13475;SDS011;6810;63.824;20.288;2023-03-05T18:28:31;0.10;;;0.00;;
13475;SDS011;6810;63.824;20.288;2023-03-05T18:30:59;0.67;;;0.10;;
13475;SDS011;6810;63.824;20.288;2023-03-05T18:33:46;0.40;;;0.20;;
13475;SDS011;6810;63.824;20.288;2023-03-05T18:36:33;0.30;;;0.10;;
13475;SDS011;6810;63.824;20.288;2023-03-05T18:39:20;0.43;;;0.30;;
13475;SDS011;6810;63.824;20.288;2023-03-05T18:42:09;0.17;;;0.10;;
13475;SDS011;6810;63.824;20.288;2023-03-05T18:44:58;0.30;;;0.10;;
13475;SDS011;6810;63.824;20.288;2023-03-05T18:47:45;0.10;;;0.10;;
13475;SDS011;6810;63.824;20.288;2023-03-05T18:50:32;0.10;;;0.00;;
13475;SDS011;6810;63.824;20.288;2023-03-05T18:53:19;1.17;;;0.17;;
13475;SDS011;6810;63.824;20.288;2023-03-05T18:56:07;0.10;;;0.10;;
13475;SDS011;6810;63.824;20.288;2023-03-05T18:58:54;0.33;;;0.10;;
13475;SDS011;6810;63.824;20.288;2023-03-05T19:01:41;0.10;;;0.07;;
13475;SDS011;6810;63.824;20.288;2023-03-05T19:04:28;0.40;;;0.10;;
13475;SDS011;6810;63.824;20.288;2023-03-05T19:07:15;0.10;;;0.10;;
13475;SDS011;6810;63.824;20.288;2023-03-05T19:10:02;0.10;;;0.00;;
13475;SDS011;6810;63.824;20.288;2023-03-05T19:16:08;0.00;;;0.00;;
13475;SDS011;6810;63.824;20.288;2023-03-05T19:19:05;0.10;;;0.10;;
13475;SDS011;6810;63.824;20.288;2023-03-05T19:21:58;0.00;;;0.00;;
13475;SDS011;6810;63.824;20.288;2023-03-05T19:24:45;1.23;;;0.20;;
13475;SDS011;6810;63.824;20.288;2023-03-05T19:27:32;0.10;;;0.10;;
13475;SDS011;6810;63.824;20.288;2023-03-05T19:30:19;0.30;;;0.10;;
13475;SDS011;6810;63.824;20.288;2023-03-05T19:33:07;0.53;;;0.00;;
13475;SDS011;6810;63.824;20.288;2023-03-05T19:35:53;0.30;;;0.20;;
13475;SDS011;6810;63.824;20.288;2023-03-05T19:38:40;0.57;;;0.20;;
13475;SDS011;6810;63.824;20.288;2023-03-05T19:41:27;0.03;;;0.00;;
13475;SDS011;6810;63.824;20.288;2023-03-05T19:44:14;0.77;;;0.10;;
13475;SDS011;6810;63.824;20.288;2023-03-05T19:47:01;0.40;;;0.10;;
13475;SDS011;6810;63.824;20.288;2023-03-05T19:49:48;0.10;;;0.10;;
13475;SDS011;6810;63.824;20.288;2023-03-05T19:52:35;0.10;;;0.10;;
13475;SDS011;6810;63.824;20.288;2023-03-05T19:55:22;1.00;;;0.07;;
13475;SDS011;6810;63.824;20.288;2023-03-05T19:58:09;0.23;;;0.20;;
13475;SDS011;6810;63.824;20.288;2023-03-05T20:00:59;0.63;;;0.20;;
13475;SDS011;6810;63.824;20.288;2023-03-05T20:03:54;0.13;;;0.07;;
13475;SDS011;6810;63.824;20.288;2023-03-05T20:06:42;0.20;;;0.10;;
13475;SDS011;6810;63.824;20.288;2023-03-05T20:09:29;1.60;;;0.10;;
13475;SDS011;6810;63.824;20.288;2023-03-05T20:12:16;0.00;;;0.00;;
13475;SDS011;6810;63.824;20.288;2023-03-05T20:15:03;1.03;;;0.10;;
13475;SDS011;6810;63.824;20.288;2023-03-05T20:17:51;0.10;;;0.07;;
13475;SDS011;6810;63.824;20.288;2023-03-05T20:20:38;0.33;;;0.10;;
13475;SDS011;6810;63.824;20.288;2023-03-05T20:23:25;0.00;;;0.00;;
13475;SDS011;6810;63.824;20.288;2023-03-05T20:26:12;0.00;;;0.00;;
13475;SDS011;6810;63.824;20.288;2023-03-05T20:28:59;0.30;;;0.07;;
13475;SDS011;6810;63.824;20.288;2023-03-05T20:31:46;0.43;;;0.07;;
13475;SDS011;6810;63.824;20.288;2023-03-05T20:34:34;0.20;;;0.10;;
13475;SDS011;6810;63.824;20.288;2023-03-05T20:37:26;0.10;;;0.10;;
13475;SDS011;6810;63.824;20.288;2023-03-05T20:40:21;0.20;;;0.00;;
13475;SDS011;6810;63.824;20.288;2023-03-05T20:43:08;1.53;;;0.10;;
13475;SDS011;6810;63.824;20.288;2023-03-05T20:45:56;0.53;;;0.10;;
13475;SDS011;6810;63.824;20.288;2023-03-05T20:48:45;0.20;;;0.00;;
13475;SDS011;6810;63.824;20.288;2023-03-05T20:51:34;0.73;;;0.20;;
13475;SDS011;6810;63.824;20.288;2023-03-05T20:54:22;0.53;;;0.10;;
13475;SDS011;6810;63.824;20.288;2023-03-05T20:57:09;0.33;;;0.10;;
13475;SDS011;6810;63.824;20.288;2023-03-05T20:59:56;0.10;;;0.10;;
13475;SDS011;6810;63.824;20.288;2023-03-05T21:02:43;1.13;;;0.10;;
13475;SDS011;6810;63.824;20.288;2023-03-05T21:05:30;1.10;;;0.20;;
13475;SDS011;6810;63.824;20.288;2023-03-05T21:08:18;0.23;;;0.10;;
13475;SDS011;6810;63.824;20.288;2023-03-05T21:11:06;1.60;;;0.20;;
13475;SDS011;6810;63.824;20.288;2023-03-05T21:13:54;0.17;;;0.10;;
13475;SDS011;6810;63.824;20.288;2023-03-05T21:16:41;0.20;;;0.10;;
13475;SDS011;6810;63.824;20.288;2023-03-05T21:19:28;0.20;;;0.07;;
13475;SDS011;6810;63.824;20.288;2023-03-05T21:22:15;0.10;;;0.10;;
13475;SDS011;6810;63.824;20.288;2023-03-05T21:25:04;0.10;;;0.10;;
13475;SDS011;6810;63.824;20.288;2023-03-05T21:28:10;0.10;;;0.00;;
13475;SDS011;6810;63.824;20.288;2023-03-05T21:31:02;0.40;;;0.10;;
13475;SDS011;6810;63.824;20.288;2023-03-05T21:33:52;0.77;;;0.07;;
13475;SDS011;6810;63.824;20.288;2023-03-05T21:36:39;0.20;;;0.10;;
13475;SDS011;6810;63.824;20.288;2023-03-05T21:39:26;0.13;;;0.10;;
13475;SDS011;6810;63.824;20.288;2023-03-05T21:42:13;0.10;;;0.00;;
13475;SDS011;6810;63.824;20.288;2023-03-05T21:45:00;0.13;;;0.00;;
13475;SDS011;6810;63.824;20.288;2023-03-05T21:47:47;0.60;;;0.10;;
13475;SDS011;6810;63.824;20.288;2023-03-05T21:50:37;0.30;;;0.10;;
13475;SDS011;6810;63.824;20.288;2023-03-05T21:53:25;0.10;;;0.10;;
13475;SDS011;6810;63.824;20.288;2023-03-05T21:56:26;0.73;;;0.10;;
13475;SDS011;6810;63.824;20.288;2023-03-05T21:59:12;0.50;;;0.20;;
13475;SDS011;6810;63.824;20.288;2023-03-05T22:02:00;0.47;;;0.20;;
13475;SDS011;6810;63.824;20.288;2023-03-05T22:04:47;1.70;;;0.20;;
13475;SDS011;6810;63.824;20.288;2023-03-05T22:07:34;0.77;;;0.20;;
13475;SDS011;6810;63.824;20.288;2023-03-05T22:10:21;0.37;;;0.20;;
13475;SDS011;6810;63.824;20.288;2023-03-05T22:13:09;0.57;;;0.20;;
13475;SDS011;6810;63.824;20.288;2023-03-05T22:15:54;0.10;;;0.10;;
13475;SDS011;6810;63.824;20.288;2023-03-05T22:18:43;0.20;;;0.20;;
13475;SDS011;6810;63.824;20.288;2023-03-05T22:21:30;0.20;;;0.20;;
13475;SDS011;6810;63.824;20.288;2023-03-05T22:24:17;0.40;;;0.20;;
13475;SDS011;6810;63.824;20.288;2023-03-05T22:27:04;1.13;;;0.43;;
13475;SDS011;6810;63.824;20.288;2023-03-05T22:29:53;0.83;;;0.40;;
13475;SDS011;6810;63.824;20.288;2023-03-05T22:32:40;0.93;;;0.30;;
13475;SDS011;6810;63.824;20.288;2023-03-05T22:35:27;0.53;;;0.30;;
13475;SDS011;6810;63.824;20.288;2023-03-05T22:38:14;0.43;;;0.33;;
13475;SDS011;6810;63.824;20.288;2023-03-05T22:41:05;0.20;;;0.20;;
13475;SDS011;6810;63.824;20.288;2023-03-05T22:43:53;1.13;;;0.30;;
13475;SDS011;6810;63.824;20.288;2023-03-05T22:46:40;1.60;;;0.40;;
13475;SDS011;6810;63.824;20.288;2023-03-05T22:49:27;1.70;;;0.30;;
13475;SDS011;6810;63.824;20.288;2023-03-05T22:52:14;2.00;;;0.30;;
13475;SDS011;6810;63.824;20.288;2023-03-05T22:55:01;0.90;;;0.50;;
13475;SDS011;6810;63.824;20.288;2023-03-05T22:57:48;1.60;;;0.40;;
13475;SDS011;6810;63.824;20.288;2023-03-05T23:00:35;0.70;;;0.40;;
13475;SDS011;6810;63.824;20.288;2023-03-05T23:03:23;0.50;;;0.40;;
13475;SDS011;6810;63.824;20.288;2023-03-05T23:06:28;1.20;;;0.40;;
13475;SDS011;6810;63.824;20.288;2023-03-05T23:09:15;1.13;;;0.20;;
13475;SDS011;6810;63.824;20.288;2023-03-05T23:12:02;0.33;;;0.33;;
13475;SDS011;6810;63.824;20.288;2023-03-05T23:14:49;1.17;;;0.30;;
13475;SDS011;6810;63.824;20.288;2023-03-05T23:17:36;0.40;;;0.40;;
13475;SDS011;6810;63.824;20.288;2023-03-05T23:20:24;1.03;;;0.50;;
13475;SDS011;6810;63.824;20.288;2023-03-05T23:23:13;0.67;;;0.40;;
13475;SDS011;6810;63.824;20.288;2023-03-05T23:26:00;0.50;;;0.50;;
13475;SDS011;6810;63.824;20.288;2023-03-05T23:28:47;1.13;;;0.40;;
13475;SDS011;6810;63.824;20.288;2023-03-05T23:31:34;1.07;;;0.50;;
13475;SDS011;6810;63.824;20.288;2023-03-05T23:34:21;0.83;;;0.40;;
13475;SDS011;6810;63.824;20.288;2023-03-05T23:37:08;0.60;;;0.50;;
13475;SDS011;6810;63.824;20.288;2023-03-05T23:39:55;0.90;;;0.47;;
13475;SDS011;6810;63.824;20.288;2023-03-05T23:42:42;1.47;;;0.60;;
13475;SDS011;6810;63.824;20.288;2023-03-05T23:45:31;1.03;;;0.50;;
13475;SDS011;6810;63.824;20.288;2023-03-05T23:48:18;2.23;;;0.50;;
13475;SDS011;6810;63.824;20.288;2023-03-05T23:51:08;0.60;;;0.50;;
13475;SDS011;6810;63.824;20.288;2023-03-05T23:53:56;0.50;;;0.50;;
13475;SDS011;6810;63.824;20.288;2023-03-05T23:56:43;0.90;;;0.50;;
13475;SDS011;6810;63.824;20.288;2023-03-05T23:59:30;1.57;;;0.50;;
